Masjed Soleyman, Iran
Current Conditions -  °F | °C
As of 4:00 PM on Saturday 25 Oct 2014 (Local Time) from OIAI Reporting Station
Clear Clear  
Wind Chill: 32°   Ceiling: Unl
Heat Index: 32°   Visibility: 6mi
Dew Point:   Wind: 7mph
Humidity: 21%   Direction: 310°NW
Pressure: 29.85"   Gusts: NA
Location:  31.94°N, 49.31°E
Report Text: OIAI 251300Z 31006KT CAVOK 32/07 Q1011
Loading
Personal Weather Stations






























Interactive Weather Map
Tropical Storm Tracking
New forecast layout! Learn more

10-Day Weather Forecast

Advertisements
Track Severe Weather on mobile